createdAt,value
2023-02-11T00:00:08.248Z,89.69
2023-02-11T00:03:16.202Z,90.00
2023-02-11T00:06:23.602Z,90.10
2023-02-11T00:09:31.968Z,90.10
2023-02-11T00:12:39.461Z,90.31
2023-02-11T00:15:46.980Z,90.48
2023-02-11T00:18:54.776Z,90.48
2023-02-11T00:22:02.160Z,90.48
2023-02-11T00:25:09.407Z,90.69
2023-02-11T00:28:17.078Z,90.79
2023-02-11T00:31:24.508Z,90.89
2023-02-11T00:34:32.053Z,90.89
2023-02-11T00:37:39.759Z,90.85
2023-02-11T00:40:46.848Z,90.95
2023-02-11T00:43:54.228Z,91.06
2023-02-11T00:47:02.279Z,90.95
2023-02-11T00:50:09.315Z,90.95
2023-02-11T00:53:17.050Z,91.27
2023-02-11T00:56:24.872Z,91.37
2023-02-11T00:59:32.097Z,91.27
2023-02-11T01:02:40.325Z,91.37
2023-02-11T01:05:48.206Z,91.37
2023-02-11T01:08:55.584Z,91.58
2023-02-11T01:12:03.373Z,91.78
2023-02-11T01:15:10.716Z,91.99
2023-02-11T01:18:18.430Z,92.26
2023-02-11T01:21:26.209Z,92.26
2023-02-11T01:24:33.696Z,92.36
2023-02-11T01:27:41.158Z,92.43
2023-02-11T01:30:48.973Z,92.53
2023-02-11T01:33:58.118Z,92.53
2023-02-11T01:37:05.578Z,93.04
2023-02-11T01:40:13.207Z,92.80
2023-02-11T01:43:21.296Z,93.10
2023-02-11T01:46:28.450Z,93.06
2023-02-11T01:49:36.679Z,93.33
2023-02-11T01:52:44.462Z,93.54
2023-02-11T01:55:51.744Z,93.43
2023-02-11T01:58:59.482Z,93.54
2023-02-11T02:02:06.842Z,93.29
2023-02-11T02:05:14.288Z,93.18
2023-02-11T02:08:22.064Z,93.39
2023-02-11T02:11:29.855Z,93.39
2023-02-11T02:14:37.432Z,93.39
2023-02-11T02:17:45.619Z,93.70
2023-02-11T02:20:53.238Z,93.60
2023-02-11T02:24:00.752Z,93.80
2023-02-11T02:27:08.040Z,93.91
2023-02-11T02:30:16.405Z,94.12
2023-02-11T02:33:23.965Z,94.22
2023-02-11T02:36:31.505Z,94.28
2023-02-11T02:39:39.682Z,94.38
2023-02-11T02:42:46.981Z,94.48
2023-02-11T02:45:54.574Z,94.73
2023-02-11T02:49:02.156Z,95.04
2023-02-11T02:52:09.197Z,95.10
2023-02-11T02:55:16.787Z,95.21
2023-02-11T02:58:24.104Z,95.42
2023-02-11T03:01:31.594Z,95.42
2023-02-11T03:04:39.260Z,95.67
2023-02-11T03:07:47.045Z,95.98
2023-02-11T03:10:54.500Z,96.03
2023-02-11T03:14:01.957Z,96.08
2023-02-11T03:17:10.833Z,96.29
2023-02-11T03:20:18.322Z,96.59
2023-02-11T03:23:26.502Z,96.76
2023-02-11T03:26:34.230Z,96.76
2023-02-11T03:29:41.847Z,96.86
2023-02-11T03:32:49.996Z,97.01
2023-02-11T03:35:58.117Z,97.01
2023-02-11T03:39:05.255Z,97.32
2023-02-11T03:42:13.054Z,97.42
2023-02-11T03:45:20.755Z,97.53
2023-02-11T03:48:28.685Z,97.49
2023-02-11T03:51:36.488Z,97.59
2023-02-11T03:54:44.028Z,97.59
2023-02-11T03:57:51.981Z,97.59
2023-02-11T04:00:59.219Z,97.69
2023-02-11T04:04:06.548Z,97.79
2023-02-11T04:07:15.146Z,98.00
2023-02-11T04:10:22.250Z,98.31
2023-02-11T04:13:30.419Z,98.52
2023-02-11T04:16:37.856Z,98.72
2023-02-11T04:19:45.256Z,99.04
2023-02-11T04:22:52.984Z,99.34
2023-02-11T04:26:00.424Z,99.70
2023-02-11T04:29:08.085Z,99.99
2023-02-11T04:32:15.848Z,99.99
2023-02-11T04:35:23.617Z,99.99
2023-02-11T04:38:31.274Z,99.99
2023-02-11T04:41:38.700Z,99.99
2023-02-11T04:44:46.505Z,99.99
2023-02-11T04:47:53.878Z,99.99
2023-02-11T04:51:01.491Z,99.99
2023-02-11T04:54:09.459Z,99.99
2023-02-11T04:57:16.976Z,99.99
2023-02-11T05:00:24.827Z,99.99
2023-02-11T05:03:32.266Z,99.99
2023-02-11T05:06:39.445Z,99.99
2023-02-11T05:09:47.495Z,99.99
2023-02-11T05:12:56.170Z,99.99
2023-02-11T05:16:03.349Z,99.99
2023-02-11T05:19:11.345Z,99.99
2023-02-11T05:22:19.232Z,99.99
2023-02-11T05:25:26.324Z,99.99
2023-02-11T05:28:34.266Z,99.99
2023-02-11T05:31:41.662Z,99.99
2023-02-11T05:34:49.537Z,99.99
2023-02-11T05:37:57.666Z,99.99
2023-02-11T05:41:04.810Z,99.99
2023-02-11T05:44:13.076Z,99.99
2023-02-11T05:47:20.932Z,99.99
2023-02-11T05:50:28.473Z,99.99
2023-02-11T05:53:35.979Z,99.99
2023-02-11T05:56:44.995Z,99.99
2023-02-11T05:59:52.994Z,99.99
2023-02-11T06:03:00.697Z,99.99
2023-02-11T06:06:08.274Z,99.99
2023-02-11T06:09:16.368Z,99.99
2023-02-11T06:12:23.731Z,99.99
2023-02-11T06:15:31.584Z,99.99
2023-02-11T06:18:39.578Z,99.99
2023-02-11T06:21:46.753Z,99.99
2023-02-11T06:25:01.619Z,99.99
2023-02-11T06:27:59.682Z,99.99
2023-02-11T06:31:07.569Z,99.99
2023-02-11T06:34:15.634Z,99.99
2023-02-11T06:37:23.251Z,99.99
2023-02-11T06:40:31.159Z,99.99
2023-02-11T06:43:38.997Z,99.99
2023-02-11T06:46:46.494Z,99.99
2023-02-11T06:49:54.191Z,99.99
2023-02-11T06:53:01.894Z,99.99
2023-02-11T06:56:09.465Z,99.99
2023-02-11T06:59:16.458Z,99.99
2023-02-11T07:02:23.614Z,99.99
2023-02-11T07:05:31.026Z,99.99
2023-02-11T07:08:38.236Z,99.99
2023-02-11T07:11:45.294Z,99.99
2023-02-11T07:14:52.603Z,99.99
2023-02-11T07:17:59.513Z,99.99
2023-02-11T07:21:07.664Z,99.99
2023-02-11T07:24:15.822Z,99.99
2023-02-11T07:27:23.310Z,99.99
2023-02-11T07:30:30.741Z,99.99
2023-02-11T07:33:38.538Z,99.99
2023-02-11T07:36:46.697Z,99.99
2023-02-11T07:39:54.214Z,99.99
2023-02-11T07:43:01.738Z,99.99
2023-02-11T07:46:09.270Z,99.99
2023-02-11T07:49:17.876Z,99.99
2023-02-11T07:52:26.286Z,99.87
2023-02-11T07:55:33.825Z,99.87
2023-02-11T07:58:41.626Z,99.87
2023-02-11T08:01:49.133Z,99.77
2023-02-11T08:04:56.269Z,99.66
2023-02-11T08:08:03.183Z,99.56
2023-02-11T08:11:10.955Z,99.35
2023-02-11T08:14:18.156Z,99.35
2023-02-11T08:17:24.997Z,99.46
2023-02-11T08:20:32.468Z,99.46
2023-02-11T08:23:39.664Z,99.52
2023-02-11T08:26:46.953Z,99.52
2023-02-11T08:29:54.761Z,99.52
2023-02-11T08:33:02.410Z,99.52
2023-02-11T08:36:09.848Z,99.41
2023-02-11T08:39:19.534Z,99.31
2023-02-11T08:42:28.025Z,99.21
2023-02-11T08:45:35.643Z,99.10
2023-02-11T08:48:43.320Z,99.21
2023-02-11T08:51:51.071Z,99.21
2023-02-11T08:54:58.358Z,99.41
2023-02-11T08:58:05.729Z,99.47
2023-02-11T09:01:13.016Z,99.57
2023-02-11T09:04:19.979Z,99.47
2023-02-11T09:07:27.582Z,99.47
2023-02-11T09:10:34.584Z,99.47
2023-02-11T09:13:41.748Z,99.37
2023-02-11T09:16:49.577Z,99.37
2023-02-11T09:19:56.841Z,99.26
2023-02-11T09:23:04.379Z,99.16
2023-02-11T09:26:12.278Z,99.06
2023-02-11T09:29:19.831Z,99.06
2023-02-11T09:32:26.959Z,99.06
2023-02-11T09:35:34.648Z,99.16
2023-02-11T09:38:42.036Z,99.16
2023-02-11T09:41:49.498Z,99.26
2023-02-11T09:44:56.720Z,99.26
2023-02-11T09:48:06.233Z,99.26
2023-02-11T09:51:13.688Z,99.26
2023-02-11T09:54:21.092Z,99.26
2023-02-11T09:57:29.424Z,99.37
2023-02-11T10:00:36.501Z,99.43
2023-02-11T10:03:43.920Z,99.52
2023-02-11T10:06:51.462Z,99.63
2023-02-11T10:09:58.419Z,99.63
2023-02-11T10:13:06.301Z,99.94
2023-02-11T10:16:13.651Z,99.99
2023-02-11T10:19:21.398Z,99.99
2023-02-11T10:22:30.583Z,99.99
2023-02-11T10:25:38.206Z,99.99
2023-02-11T10:28:45.527Z,99.99
2023-02-11T10:31:53.383Z,99.99
2023-02-11T10:35:00.524Z,99.99
2023-02-11T10:38:07.594Z,99.99
2023-02-11T10:41:15.061Z,99.99
2023-02-11T10:44:22.439Z,99.99
2023-02-11T10:47:29.934Z,99.99
2023-02-11T10:50:37.019Z,99.99
2023-02-11T10:53:44.167Z,99.99
2023-02-11T10:56:51.698Z,99.99
2023-02-11T10:59:58.704Z,99.99
2023-02-11T11:03:05.967Z,99.99
2023-02-11T11:06:12.757Z,99.99
2023-02-11T11:09:20.537Z,99.99
2023-02-11T11:12:27.692Z,99.99
2023-02-11T11:15:34.790Z,99.99
2023-02-11T11:18:42.259Z,99.99
2023-02-11T11:21:49.073Z,99.99
2023-02-11T11:24:56.664Z,99.99
2023-02-11T11:28:04.123Z,99.99
2023-02-11T11:31:11.062Z,99.99
2023-02-11T11:34:18.574Z,99.99
2023-02-11T11:37:25.842Z,99.99
2023-02-11T11:40:33.142Z,99.99
2023-02-11T11:43:40.557Z,99.99
2023-02-11T11:46:48.136Z,99.99
2023-02-11T11:49:55.305Z,99.99
2023-02-11T11:53:02.212Z,99.99
2023-02-11T11:56:09.874Z,99.99
2023-02-11T11:59:17.124Z,99.99
2023-02-11T12:02:24.189Z,99.99
2023-02-11T12:05:31.890Z,99.99
2023-02-11T12:08:39.324Z,99.99
2023-02-11T12:11:46.406Z,99.99
2023-02-11T12:14:53.986Z,99.99
2023-02-11T12:18:01.139Z,99.99
2023-02-11T12:21:08.546Z,99.99
2023-02-11T12:24:17.416Z,99.99
2023-02-11T12:27:24.727Z,99.99
2023-02-11T12:30:31.793Z,99.99
2023-02-11T12:33:38.919Z,99.99
2023-02-11T12:36:46.781Z,99.99
2023-02-11T12:39:54.223Z,99.99
2023-02-11T12:43:02.707Z,99.99
2023-02-11T12:46:10.689Z,99.99
2023-02-11T12:49:17.464Z,99.99
2023-02-11T12:52:25.095Z,99.99
2023-02-11T12:55:32.807Z,99.99
2023-02-11T12:58:45.433Z,99.99
2023-02-11T13:01:43.021Z,99.99
2023-02-11T13:04:50.227Z,99.99
2023-02-11T13:07:57.740Z,99.99
2023-02-11T13:11:05.048Z,99.99
2023-02-11T13:14:12.263Z,99.99
2023-02-11T13:17:19.727Z,99.99
2023-02-11T13:20:27.185Z,99.99
2023-02-11T13:23:34.851Z,99.99
2023-02-11T13:26:42.454Z,99.99
2023-02-11T13:29:49.801Z,99.99
2023-02-11T13:32:57.691Z,99.99
2023-02-11T13:36:05.054Z,99.99
2023-02-11T13:39:12.263Z,99.99
2023-02-11T13:42:20.037Z,99.99
2023-02-11T13:45:27.019Z,99.99
2023-02-11T13:48:34.900Z,99.99
2023-02-11T13:51:42.463Z,99.90
2023-02-11T13:54:49.550Z,99.90
2023-02-11T13:57:57.131Z,99.90
2023-02-11T14:01:04.336Z,99.99
2023-02-11T14:04:11.753Z,99.99
2023-02-11T14:07:19.060Z,99.99
2023-02-11T14:10:26.728Z,99.99
2023-02-11T14:13:34.404Z,99.99
2023-02-11T14:16:41.920Z,99.99
2023-02-11T14:19:49.463Z,99.99
2023-02-11T14:22:56.636Z,99.99
2023-02-11T14:26:03.885Z,99.99
2023-02-11T14:29:11.657Z,99.99
2023-02-11T14:32:18.672Z,99.99
2023-02-11T14:35:26.315Z,99.99
2023-02-11T14:38:33.803Z,99.99
2023-02-11T14:41:40.666Z,99.99
2023-02-11T14:44:48.158Z,99.99
2023-02-11T14:47:56.685Z,99.99
2023-02-11T14:51:03.818Z,99.99
2023-02-11T14:54:11.316Z,99.99
2023-02-11T14:57:18.693Z,99.99
2023-02-11T15:00:26.045Z,99.99
2023-02-11T15:03:33.200Z,99.99
2023-02-11T15:06:40.876Z,99.99
2023-02-11T15:09:48.474Z,99.99
2023-02-11T15:12:55.437Z,99.99
2023-02-11T15:16:03.167Z,99.99
2023-02-11T15:19:10.861Z,99.99
2023-02-11T15:22:17.863Z,99.99
2023-02-11T15:25:25.683Z,99.99
2023-02-11T15:28:33.104Z,99.99
2023-02-11T15:31:40.750Z,99.99
2023-02-11T15:34:49.014Z,99.99
2023-02-11T15:37:56.608Z,99.99
2023-02-11T15:41:04.274Z,99.99
2023-02-11T15:44:12.311Z,99.99
2023-02-11T15:47:19.508Z,99.99
2023-02-11T15:50:26.910Z,99.99
2023-02-11T15:53:34.107Z,99.99
2023-02-11T15:56:41.400Z,99.99
2023-02-11T15:59:48.577Z,99.99
2023-02-11T16:02:56.160Z,99.99
2023-02-11T16:06:03.523Z,99.99
2023-02-11T16:09:10.917Z,99.99
2023-02-11T16:12:18.472Z,99.99
2023-02-11T16:15:25.394Z,99.99
2023-02-11T16:18:38.468Z,99.99
2023-02-11T16:21:36.805Z,99.99
2023-02-11T16:24:43.885Z,99.99
2023-02-11T16:27:51.754Z,99.99
2023-02-11T16:31:02.400Z,99.99
2023-02-11T16:34:10.215Z,99.99
2023-02-11T16:37:17.950Z,99.99
2023-02-11T16:40:25.420Z,99.99
2023-02-11T16:43:32.803Z,99.99
2023-02-11T16:46:40.622Z,99.99
2023-02-11T16:49:47.818Z,99.99
2023-02-11T16:52:55.404Z,99.99
2023-02-11T16:56:02.546Z,99.99
2023-02-11T16:59:09.588Z,99.99
2023-02-11T17:02:16.819Z,99.99
2023-02-11T17:05:23.834Z,99.99
2023-02-11T17:08:31.222Z,99.99
2023-02-11T17:11:38.618Z,99.99
2023-02-11T17:14:46.793Z,99.99
2023-02-11T17:17:54.451Z,99.99
2023-02-11T17:21:01.645Z,99.99
2023-02-11T17:24:08.725Z,99.99
2023-02-11T17:27:16.270Z,99.99
2023-02-11T17:30:23.168Z,99.99
2023-02-11T17:33:30.798Z,99.99
2023-02-11T17:36:39.780Z,99.99
2023-02-11T17:39:47.015Z,99.99
2023-02-11T17:42:54.317Z,99.99
2023-02-11T17:46:02.628Z,99.99
2023-02-11T17:49:10.617Z,99.99
2023-02-11T17:52:17.993Z,99.99
2023-02-11T17:55:25.726Z,99.99
2023-02-11T17:58:33.048Z,99.99
2023-02-11T18:01:41.087Z,99.99
2023-02-11T18:04:49.149Z,99.99
2023-02-11T18:07:57.048Z,99.99
2023-02-11T18:11:05.003Z,99.99
2023-02-11T18:14:12.455Z,99.99
2023-02-11T18:17:20.101Z,99.99
2023-02-11T18:20:27.709Z,99.99
2023-02-11T18:23:36.543Z,99.99
2023-02-11T18:26:44.651Z,99.99
2023-02-11T18:29:51.995Z,99.99
2023-02-11T18:32:59.890Z,99.99
2023-02-11T18:36:07.714Z,99.99
2023-02-11T18:39:15.048Z,99.99
2023-02-11T18:42:22.832Z,99.99
2023-02-11T18:45:30.833Z,99.99
2023-02-11T18:48:37.966Z,99.99
2023-02-11T18:51:46.153Z,99.99
2023-02-11T18:54:53.754Z,99.99
2023-02-11T18:58:01.310Z,99.99
2023-02-11T19:01:09.854Z,99.99
2023-02-11T19:04:17.511Z,99.99
2023-02-11T19:07:25.379Z,99.99
2023-02-11T19:10:33.017Z,99.99
2023-02-11T19:13:41.438Z,99.99
2023-02-11T19:16:49.518Z,99.99
2023-02-11T19:19:57.183Z,99.99
2023-02-11T19:23:04.801Z,99.99
2023-02-11T19:26:12.561Z,99.99
2023-02-11T19:29:19.912Z,99.99
2023-02-11T19:32:27.744Z,99.99
2023-02-11T19:35:35.284Z,99.99
2023-02-11T19:38:42.479Z,99.99
2023-02-11T19:41:50.037Z,99.99
2023-02-11T19:44:58.662Z,99.99
2023-02-11T19:48:06.869Z,99.99
2023-02-11T19:51:15.074Z,99.99
2023-02-11T19:54:22.135Z,99.99
2023-02-11T19:57:31.086Z,99.99
2023-02-11T20:00:39.293Z,99.99
2023-02-11T20:03:46.842Z,99.99
2023-02-11T20:06:54.634Z,99.99
2023-02-11T20:10:02.769Z,99.99
2023-02-11T20:13:10.610Z,99.99
2023-02-11T20:16:19.224Z,99.99
2023-02-11T20:19:27.280Z,99.99
2023-02-11T20:22:34.375Z,99.99
2023-02-11T20:25:42.215Z,99.99
2023-02-11T20:28:49.997Z,99.99
2023-02-11T20:31:57.325Z,99.99
2023-02-11T20:35:04.942Z,99.99
2023-02-11T20:38:12.392Z,99.99
2023-02-11T20:41:19.836Z,99.99
2023-02-11T20:44:27.549Z,99.99
2023-02-11T20:47:35.077Z,99.99
2023-02-11T20:50:42.600Z,99.99
2023-02-11T20:53:49.839Z,99.99
2023-02-11T20:56:57.643Z,99.99
2023-02-11T21:00:04.951Z,99.99
2023-02-11T21:03:11.998Z,99.99
2023-02-11T21:06:20.161Z,99.99
2023-02-11T21:09:28.598Z,99.99
2023-02-11T21:12:35.783Z,99.99
2023-02-11T21:15:43.366Z,99.99
2023-02-11T21:18:51.054Z,99.99
2023-02-11T21:21:58.056Z,99.99
2023-02-11T21:25:05.338Z,99.99
2023-02-11T21:28:12.420Z,99.99
2023-02-11T21:31:19.670Z,99.99
2023-02-11T21:34:27.075Z,99.99
2023-02-11T21:37:34.016Z,99.99
2023-02-11T21:40:41.084Z,99.99
2023-02-11T21:43:48.176Z,99.99
2023-02-11T21:46:55.441Z,99.99
2023-02-11T21:50:02.671Z,99.99
2023-02-11T21:53:10.271Z,99.99
2023-02-11T21:56:17.675Z,99.99
2023-02-11T21:59:24.801Z,99.99
2023-02-11T22:02:31.926Z,99.99
2023-02-11T22:05:39.381Z,99.99
2023-02-11T22:08:46.303Z,99.99
2023-02-11T22:11:53.917Z,99.99
2023-02-11T22:15:01.417Z,99.99
2023-02-11T22:18:08.253Z,99.99
2023-02-11T22:21:15.948Z,99.99
2023-02-11T22:24:23.095Z,99.99
2023-02-11T22:27:30.322Z,99.99
2023-02-11T22:30:38.169Z,99.99
2023-02-11T22:33:45.252Z,99.99
2023-02-11T22:36:52.625Z,99.99
2023-02-11T22:40:00.121Z,99.99
2023-02-11T22:43:07.071Z,99.99
2023-02-11T22:46:14.565Z,99.99
2023-02-11T22:49:22.244Z,99.99
2023-02-11T22:52:29.303Z,99.99
2023-02-11T22:55:36.794Z,99.99
2023-02-11T22:58:44.572Z,99.99
2023-02-11T23:01:51.512Z,99.99
2023-02-11T23:04:59.223Z,99.99
2023-02-11T23:08:06.383Z,99.99
2023-02-11T23:11:13.696Z,99.99
2023-02-11T23:14:21.150Z,99.99
2023-02-11T23:17:28.207Z,99.99
2023-02-11T23:20:35.883Z,99.99
2023-02-11T23:23:43.206Z,99.99
2023-02-11T23:26:50.498Z,99.99
2023-02-11T23:29:58.015Z,99.99
2023-02-11T23:33:05.396Z,99.99
2023-02-11T23:36:12.962Z,99.99
2023-02-11T23:39:20.011Z,99.99
2023-02-11T23:42:27.045Z,99.99
2023-02-11T23:45:34.666Z,99.99
2023-02-11T23:48:42.186Z,99.99
2023-02-11T23:51:49.169Z,99.99
2023-02-11T23:54:56.844Z,99.99
2023-02-11T23:58:04.294Z,99.99
